Oralynn — ZDNX8 — position and weather

sailwx.info

Track history (hours):
 
Tides and Currents Weather Stations Pressure Air Temp Water Temp Dewpoint Dewpoint Depression Visibility Wind Speed Wind Dir Waves Ship Positions

Oralynn

Last reported at 2018-Jan-24 09:30 UTC. Time now 2018-Jan-24 10:00 UTC.
Position N 48°17' W 004°55'.

Length 103 m; draft 5 m.

Type: Ship (hazmat cat C). MMSI: 236647000.

Date/timePositionNaut miles runAvg speedWind from/ knotsBaromVisibWave heightAir tempDewpointWater temp
2018-Jan-24 09:30N 48°17' W 004°55'2 4.6
2018-Jan-24 09:00N 48°17' W 004°51'3 5.0
2018-Jan-24 08:30N 48°17' W 004°47'4 7.7
2018-Jan-24 08:00N 48°19' W 004°42'4 8.6
2018-Jan-24 07:30N 48°20' W 004°36'4 8.0
2018-Jan-24 07:01N 48°21' W 004°30'3 5.0
2018-Jan-24 06:30N 48°23' W 004°27'0 0.0
2018-Jan-24 06:00N 48°23' W 004°27'0 0.0
2018-Jan-24 05:30N 48°23' W 004°27'0 0.0
2018-Jan-24 05:00N 48°23' W 004°27'0 0.0
2018-Jan-24 04:30N 48°23' W 004°27'0 0.0
2018-Jan-24 04:00N 48°23' W 004°27'0 0.0
2018-Jan-24 03:30N 48°23' W 004°27'0 0.0
2018-Jan-24 03:00N 48°23' W 004°27'0 0.0
2018-Jan-24 02:30N 48°23' W 004°27'0 0.0
2018-Jan-24 02:00N 48°23' W 004°27'0 0.0
2018-Jan-24 01:30N 48°23' W 004°27'0 0.0
2018-Jan-24 01:00N 48°23' W 004°27'0 0.0
2018-Jan-24 00:30N 48°23' W 004°27'0 0.0
2018-Jan-24 00:00N 48°23' W 004°27'0 0.0
2018-Jan-23 23:30N 48°23' W 004°27'0 0.0
2018-Jan-23 23:00N 48°23' W 004°27'0 0.0
2018-Jan-23 22:30N 48°23' W 004°27'0 0.0
2018-Jan-23 22:00N 48°23' W 004°27'0 0.0
2018-Jan-23 21:30N 48°23' W 004°27'0 0.0
2018-Jan-23 21:00N 48°23' W 004°27'1 1.0
2018-Jan-23 20:30N 48°23' W 004°27'5 9.1
2018-Jan-23 20:00N 48°21' W 004°34'510.9
2018-Jan-23 19:30N 48°18' W 004°41'611.0
2018-Jan-23 19:00N 48°17' W 004°49'611.3
2018-Jan-23 18:31N 48°15' W 004°57'611.5
2018-Jan-23 18:00N 48°12' W 005°04'612.1
2018-Jan-23 17:30N 48°07' W 005°10'611.8
2018-Jan-23 17:00N 48°02' W 005°13'68 9.9
2018-Jan-23 10:10N 47°15' W 004°00'210.1
2018-Jan-23 09:59N 47°14' W 003°58'510.4
2018-Jan-23 09:30N 47°11' W 003°52'510.3
2018-Jan-23 09:00N 47°08' W 003°46'510.2
2018-Jan-23 08:30N 47°05' W 003°40'1010.3
2018-Jan-23 07:35N 46°59' W 003°29'110.0
2018-Jan-23 07:30N 46°59' W 003°28'4510.0
2018-Jan-23 03:01N 46°32' W 002°36'010.4
2018-Jan-23 03:00N 46°32' W 002°36'610.5
2018-Jan-23 02:27N 46°28' W 002°29'510.7
2018-Jan-23 02:00N 46°25' W 002°23'510.5
2018-Jan-23 01:30N 46°22' W 002°17'510.6
2018-Jan-23 01:00N 46°19' W 002°11'610.6
2018-Jan-23 00:29N 46°16' W 002°05'610.6
2018-Jan-22 23:58N 46°12' W 001°58'510.4
2018-Jan-22 23:30N 46°10' W 001°53'510.1
2018-Jan-22 23:00N 46°08' W 001°46'510.4
2018-Jan-22 22:30N 46°08' W 001°38'510.6
2018-Jan-22 22:00N 46°07' W 001°31'611.6
2018-Jan-22 21:30N 46°07' W 001°22'5 9.5
2018-Jan-22 21:00N 46°07' W 001°16'3 5.2
2018-Jan-22 20:29N 46°09' W 001°14'0 0.0
2018-Jan-22 19:59N 46°09' W 001°14'0 0.0
2018-Jan-22 19:29N 46°09' W 001°14'0 0.0
2018-Jan-22 18:59N 46°09' W 001°14'0 0.0
2018-Jan-22 18:29N 46°09' W 001°14'0 0.0
2018-Jan-22 17:59N 46°09' W 001°14'0 0.0
2018-Jan-22 17:29N 46°09' W 001°14'0 0.0
2018-Jan-22 16:59N 46°09' W 001°14'0 0.0
2018-Jan-22 16:29N 46°09' W 001°14'0 0.0
2018-Jan-22 15:59N 46°09' W 001°14'0 0.0
2018-Jan-22 15:29N 46°09' W 001°14'0 0.0
2018-Jan-22 14:59N 46°09' W 001°14'0 0.0
2018-Jan-22 14:29N 46°09' W 001°14'0 0.0
2018-Jan-22 13:59N 46°09' W 001°14'0 0.0
2018-Jan-22 13:29N 46°09' W 001°14'0 0.0
2018-Jan-22 13:00N 46°09' W 001°14'0 0.1
2018-Jan-22 12:30N 46°09' W 001°14'0 0.6
2018-Jan-22 12:00N 46°09' W 001°15'3 6.1
2018-Jan-22 11:30N 46°06' W 001°16'1 2.1
2018-Jan-22 11:00N 46°05' W 001°15'0 0.0
2018-Jan-22 10:30N 46°05' W 001°15'0 0.0
2018-Jan-22 10:00N 46°05' W 001°15'0 0.0
2018-Jan-22 09:30N 46°05' W 001°15'0 0.0
2018-Jan-22 09:00N 46°05' W 001°15'0 0.0
2018-Jan-22 08:31N 46°05' W 001°15'0 0.1
2018-Jan-22 08:00N 46°05' W 001°15'0 0.0
2018-Jan-22 07:30N 46°05' W 001°15'0 0.0
2018-Jan-22 07:00N 46°05' W 001°15'0 0.0
2018-Jan-22 06:31N 46°05' W 001°15'0 0.0
2018-Jan-22 06:00N 46°05' W 001°15'0 0.0
2018-Jan-22 05:30N 46°05' W 001°15'0 0.0
2018-Jan-22 05:01N 46°05' W 001°15'0 0.0
2018-Jan-22 04:31N 46°05' W 001°15'0 0.0
2018-Jan-22 04:01N 46°05' W 001°15'0 0.0
2018-Jan-22 03:30N 46°05' W 001°15'0 0.0
2018-Jan-22 03:00N 46°05' W 001°15'0 0.0
2018-Jan-22 02:30N 46°05' W 001°15'0 0.0
2018-Jan-22 02:00N 46°05' W 001°15'0 0.0
2018-Jan-22 01:30N 46°05' W 001°15'0 0.0
2018-Jan-22 01:00N 46°05' W 001°15'0 0.0
2018-Jan-22 00:30N 46°05' W 001°15'0 0.0
2018-Jan-22 00:00N 46°05' W 001°15'0 0.0
2018-Jan-21 23:30N 46°05' W 001°15'0 0.0
2018-Jan-21 23:00N 46°05' W 001°15'0 0.0
2018-Jan-21 22:30N 46°05' W 001°15'0 0.0
2018-Jan-21 22:00N 46°05' W 001°15'0 0.1
2018-Jan-21 21:30N 46°05' W 001°15'0 0.1
2018-Jan-21 21:01N 46°05' W 001°15'0 0.2
2018-Jan-21 20:31N 46°05' W 001°15'4 7.7
2018-Jan-21 20:01N 46°06' W 001°21'611.0
2018-Jan-21 19:31N 46°07' W 001°28'510.8
2018-Jan-21 19:00N 46°07' W 001°36'510.5
2018-Jan-21 18:30N 46°01' W 001°38'21 8.8
2018-Jan-21 16:06N 45°42' W 001°27'1 9.8
2018-Jan-21 15:57N 45°40' W 001°26'5 9.8
2018-Jan-21 15:28N 45°36' W 001°23'4 8.3
2018-Jan-21 14:59N 45°38' W 001°18'5 9.8
2018-Jan-21 14:30N 45°40' W 001°11'611.0
2018-Jan-21 14:00N 45°36' W 001°05'3 6.3
2018-Jan-21 13:29N 45°33' W 001°03'0 0.1
2018-Jan-21 12:58N 45°33' W 001°03'0 0.0
2018-Jan-21 12:28N 45°33' W 001°03'0 0.0
2018-Jan-21 11:44N 45°33' W 001°03'0 0.0
2018-Jan-21 11:23N 45°33' W 001°03'0 0.0
2018-Jan-21 11:00N 45°33' W 001°03'1 2.6
2018-Jan-21 10:30N 45°33' W 001°01'713.6
2018-Jan-21 10:00N 45°28' W 000°55'712.9
2018-Jan-21 09:30N 45°23' W 000°49'4 0.2
2018-Jan-20 15:27N 45°19' W 000°47'612.4
2018-Jan-20 15:00N 45°24' W 000°50'611.9
2018-Jan-20 14:30N 45°29' W 000°56'612.5
2018-Jan-20 14:00N 45°33' W 001°02'1 2.4
2018-Jan-20 13:27N 45°34' W 001°03'0 0.3
2018-Jan-20 12:57N 45°34' W 001°03'0 0.1
2018-Jan-20 12:27N 45°34' W 001°03'0 0.1
2018-Jan-20 12:00N 45°34' W 001°03'0 0.0
2018-Jan-20 11:27N 45°34' W 001°03'0 0.0
2018-Jan-20 10:57N 45°34' W 001°03'0 0.0
2018-Jan-20 10:30N 45°34' W 001°03'0 0.0
2018-Jan-20 10:00N 45°34' W 001°03'0 0.0
2018-Jan-20 09:30N 45°34' W 001°03'0 0.0
2018-Jan-20 08:33N 45°34' W 001°03'0 0.1
2018-Jan-20 08:30N 45°34' W 001°03'0 0.1
2018-Jan-20 08:00N 45°34' W 001°03'0 0.1
2018-Jan-20 07:30N 45°34' W 001°03'0 0.0
2018-Jan-20 07:00N 45°34' W 001°03'0 0.0
2018-Jan-20 06:12N 45°34' W 001°03'0 0.1
2018-Jan-20 05:54N 45°34' W 001°03'0 1.3
2018-Jan-20 05:31N 45°34' W 001°03'4 8.4
2018-Jan-20 05:00N 45°37' W 001°06'612.3
2018-Jan-20 04:30N 45°39' W 001°15'612.0
2018-Jan-20 04:01N 45°36' W 001°22'5510.9
2018-Jan-19 22:58N 46°15' W 002°18'49 9.0
2018-Jan-19 17:28N 47°04' W 002°30'4 9.7
2018-Jan-19 17:01N 47°06' W 002°24'4 8.3
2018-Jan-19 16:31N 47°09' W 002°20'5 9.6
2018-Jan-19 16:00N 47°13' W 002°16'5 9.8
2018-Jan-19 15:31N 47°16' W 002°11'3 5.7
2018-Jan-19 14:56N 47°18' W 002°07'0 0.0
2018-Jan-19 14:26N 47°18' W 002°07'0 0.0
2018-Jan-19 13:59N 47°18' W 002°07'0 0.0
2018-Jan-19 12:20N 47°18' W 002°07'0 0.0
2018-Jan-19 11:56N 47°18' W 002°07'0 0.0
2018-Jan-19 11:29N 47°18' W 002°07'0 0.0
2018-Jan-19 10:56N 47°18' W 002°07'0 0.0
2018-Jan-19 10:20N 47°18' W 002°07'0 0.0
2018-Jan-19 09:56N 47°18' W 002°07'0 0.0
2018-Jan-19 08:56N 47°18' W 002°07'0 0.0
2018-Jan-19 07:26N 47°18' W 002°07'0 0.0
2018-Jan-19 02:50N 47°18' W 002°07'0 0.0
2018-Jan-19 02:26N 47°18' W 002°07'0 0.0
2018-Jan-19 01:50N 47°18' W 002°07'0 0.0
2018-Jan-18 22:44N 47°18' W 002°07'0 0.0
2018-Jan-18 22:26N 47°18' W 002°07'0 0.0
2018-Jan-18 21:44N 47°18' W 002°07'0 0.0
2018-Jan-18 17:26N 47°18' W 002°07'0 0.0
2018-Jan-18 16:56N 47°18' W 002°07'0 0.2
2018-Jan-18 16:30N 47°18' W 002°07'4 8.4
2018-Jan-18 16:00N 47°16' W 002°12'611.5
2018-Jan-18 15:30N 47°11' W 002°18'510.3
2018-Jan-18 15:00N 47°07' W 002°21'3 6.7
2018-Jan-18 14:30N 47°05' W 002°25'4 7.0
2018-Jan-18 14:00N 47°03' W 002°29'  
Track history (hours):
 
Tides and Currents Weather Stations Pressure Air Temp Water Temp Dewpoint Dewpoint Depression Visibility Wind Speed Wind Dir Waves Ship Positions

Oralynn

Last reported at 2018-Jan-24 09:30 UTC. Time now 2018-Jan-24 10:00 UTC.
Position N 48°17' W 004°55'.

Length 103 m; draft 5 m.

Type: Ship (hazmat cat C). MMSI: 236647000.

Date/timePositionNaut miles runAvg speedWind from/ knotsBaromVisibWave heightAir tempDewpointWater temp
2018-Jan-24 09:30N 48°17' W 004°55'2 4.6
2018-Jan-24 09:00N 48°17' W 004°51'3 5.0
2018-Jan-24 08:30N 48°17' W 004°47'4 7.7
2018-Jan-24 08:00N 48°19' W 004°42'4 8.6
2018-Jan-24 07:30N 48°20' W 004°36'4 8.0
2018-Jan-24 07:01N 48°21' W 004°30'3 5.0
2018-Jan-24 06:30N 48°23' W 004°27'0 0.0
2018-Jan-24 06:00N 48°23' W 004°27'0 0.0
2018-Jan-24 05:30N 48°23' W 004°27'0 0.0
2018-Jan-24 05:00N 48°23' W 004°27'0 0.0
2018-Jan-24 04:30N 48°23' W 004°27'0 0.0
2018-Jan-24 04:00N 48°23' W 004°27'0 0.0
2018-Jan-24 03:30N 48°23' W 004°27'0 0.0
2018-Jan-24 03:00N 48°23' W 004°27'0 0.0
2018-Jan-24 02:30N 48°23' W 004°27'0 0.0
2018-Jan-24 02:00N 48°23' W 004°27'0 0.0
2018-Jan-24 01:30N 48°23' W 004°27'0 0.0
2018-Jan-24 01:00N 48°23' W 004°27'0 0.0
2018-Jan-24 00:30N 48°23' W 004°27'0 0.0
2018-Jan-24 00:00N 48°23' W 004°27'0 0.0
2018-Jan-23 23:30N 48°23' W 004°27'0 0.0
2018-Jan-23 23:00N 48°23' W 004°27'0 0.0
2018-Jan-23 22:30N 48°23' W 004°27'0 0.0
2018-Jan-23 22:00N 48°23' W 004°27'0 0.0
2018-Jan-23 21:30N 48°23' W 004°27'0 0.0
2018-Jan-23 21:00N 48°23' W 004°27'1 1.0
2018-Jan-23 20:30N 48°23' W 004°27'5 9.1
2018-Jan-23 20:00N 48°21' W 004°34'510.9
2018-Jan-23 19:30N 48°18' W 004°41'611.0
2018-Jan-23 19:00N 48°17' W 004°49'611.3
2018-Jan-23 18:31N 48°15' W 004°57'611.5
2018-Jan-23 18:00N 48°12' W 005°04'612.1
2018-Jan-23 17:30N 48°07' W 005°10'611.8
2018-Jan-23 17:00N 48°02' W 005°13'68 9.9
2018-Jan-23 10:10N 47°15' W 004°00'210.1
2018-Jan-23 09:59N 47°14' W 003°58'510.4
2018-Jan-23 09:30N 47°11' W 003°52'510.3
2018-Jan-23 09:00N 47°08' W 003°46'510.2
2018-Jan-23 08:30N 47°05' W 003°40'1010.3
2018-Jan-23 07:35N 46°59' W 003°29'110.0
2018-Jan-23 07:30N 46°59' W 003°28'4510.0
2018-Jan-23 03:01N 46°32' W 002°36'010.4
2018-Jan-23 03:00N 46°32' W 002°36'610.5
2018-Jan-23 02:27N 46°28' W 002°29'510.7
2018-Jan-23 02:00N 46°25' W 002°23'510.5
2018-Jan-23 01:30N 46°22' W 002°17'510.6
2018-Jan-23 01:00N 46°19' W 002°11'610.6
2018-Jan-23 00:29N 46°16' W 002°05'610.6
2018-Jan-22 23:58N 46°12' W 001°58'510.4
2018-Jan-22 23:30N 46°10' W 001°53'510.1
2018-Jan-22 23:00N 46°08' W 001°46'510.4
2018-Jan-22 22:30N 46°08' W 001°38'510.6
2018-Jan-22 22:00N 46°07' W 001°31'611.6
2018-Jan-22 21:30N 46°07' W 001°22'5 9.5
2018-Jan-22 21:00N 46°07' W 001°16'3 5.2
2018-Jan-22 20:29N 46°09' W 001°14'0 0.0
2018-Jan-22 19:59N 46°09' W 001°14'0 0.0
2018-Jan-22 19:29N 46°09' W 001°14'0 0.0
2018-Jan-22 18:59N 46°09' W 001°14'0 0.0
2018-Jan-22 18:29N 46°09' W 001°14'0 0.0
2018-Jan-22 17:59N 46°09' W 001°14'0 0.0
2018-Jan-22 17:29N 46°09' W 001°14'0 0.0
2018-Jan-22 16:59N 46°09' W 001°14'0 0.0
2018-Jan-22 16:29N 46°09' W 001°14'0 0.0
2018-Jan-22 15:59N 46°09' W 001°14'0 0.0
2018-Jan-22 15:29N 46°09' W 001°14'0 0.0
2018-Jan-22 14:59N 46°09' W 001°14'0 0.0
2018-Jan-22 14:29N 46°09' W 001°14'0 0.0
2018-Jan-22 13:59N 46°09' W 001°14'0 0.0
2018-Jan-22 13:29N 46°09' W 001°14'0 0.0
2018-Jan-22 13:00N 46°09' W 001°14'0 0.1
2018-Jan-22 12:30N 46°09' W 001°14'0 0.6
2018-Jan-22 12:00N 46°09' W 001°15'3 6.1
2018-Jan-22 11:30N 46°06' W 001°16'1 2.1
2018-Jan-22 11:00N 46°05' W 001°15'0 0.0
2018-Jan-22 10:30N 46°05' W 001°15'0 0.0
2018-Jan-22 10:00N 46°05' W 001°15'0 0.0
2018-Jan-22 09:30N 46°05' W 001°15'0 0.0
2018-Jan-22 09:00N 46°05' W 001°15'0 0.0
2018-Jan-22 08:31N 46°05' W 001°15'0 0.1
2018-Jan-22 08:00N 46°05' W 001°15'0 0.0
2018-Jan-22 07:30N 46°05' W 001°15'0 0.0
2018-Jan-22 07:00N 46°05' W 001°15'0 0.0
2018-Jan-22 06:31N 46°05' W 001°15'0 0.0
2018-Jan-22 06:00N 46°05' W 001°15'0 0.0
2018-Jan-22 05:30N 46°05' W 001°15'0 0.0
2018-Jan-22 05:01N 46°05' W 001°15'0 0.0
2018-Jan-22 04:31N 46°05' W 001°15'0 0.0
2018-Jan-22 04:01N 46°05' W 001°15'0 0.0
2018-Jan-22 03:30N 46°05' W 001°15'0 0.0
2018-Jan-22 03:00N 46°05' W 001°15'0 0.0
2018-Jan-22 02:30N 46°05' W 001°15'0 0.0
2018-Jan-22 02:00N 46°05' W 001°15'0 0.0
2018-Jan-22 01:30N 46°05' W 001°15'0 0.0
2018-Jan-22 01:00N 46°05' W 001°15'0 0.0
2018-Jan-22 00:30N 46°05' W 001°15'0 0.0
2018-Jan-22 00:00N 46°05' W 001°15'0 0.0
2018-Jan-21 23:30N 46°05' W 001°15'0 0.0
2018-Jan-21 23:00N 46°05' W 001°15'0 0.0
2018-Jan-21 22:30N 46°05' W 001°15'0 0.0
2018-Jan-21 22:00N 46°05' W 001°15'0 0.1
2018-Jan-21 21:30N 46°05' W 001°15'0 0.1
2018-Jan-21 21:01N 46°05' W 001°15'0 0.2
2018-Jan-21 20:31N 46°05' W 001°15'4 7.7
2018-Jan-21 20:01N 46°06' W 001°21'611.0
2018-Jan-21 19:31N 46°07' W 001°28'510.8
2018-Jan-21 19:00N 46°07' W 001°36'510.5
2018-Jan-21 18:30N 46°01' W 001°38'21 8.8
2018-Jan-21 16:06N 45°42' W 001°27'1 9.8
2018-Jan-21 15:57N 45°40' W 001°26'5 9.8
2018-Jan-21 15:28N 45°36' W 001°23'4 8.3
2018-Jan-21 14:59N 45°38' W 001°18'5 9.8
2018-Jan-21 14:30N 45°40' W 001°11'611.0
2018-Jan-21 14:00N 45°36' W 001°05'3 6.3
2018-Jan-21 13:29N 45°33' W 001°03'0 0.1
2018-Jan-21 12:58N 45°33' W 001°03'0 0.0
2018-Jan-21 12:28N 45°33' W 001°03'0 0.0
2018-Jan-21 11:44N 45°33' W 001°03'0 0.0
2018-Jan-21 11:23N 45°33' W 001°03'0 0.0
2018-Jan-21 11:00N 45°33' W 001°03'1 2.6
2018-Jan-21 10:30N 45°33' W 001°01'713.6
2018-Jan-21 10:00N 45°28' W 000°55'712.9
2018-Jan-21 09:30N 45°23' W 000°49'4 0.2
2018-Jan-20 15:27N 45°19' W 000°47'612.4
2018-Jan-20 15:00N 45°24' W 000°50'611.9
2018-Jan-20 14:30N 45°29' W 000°56'612.5
2018-Jan-20 14:00N 45°33' W 001°02'1 2.4
2018-Jan-20 13:27N 45°34' W 001°03'0 0.3
2018-Jan-20 12:57N 45°34' W 001°03'0 0.1
2018-Jan-20 12:27N 45°34' W 001°03'0 0.1
2018-Jan-20 12:00N 45°34' W 001°03'0 0.0
2018-Jan-20 11:27N 45°34' W 001°03'0 0.0
2018-Jan-20 10:57N 45°34' W 001°03'0 0.0
2018-Jan-20 10:30N 45°34' W 001°03'0 0.0
2018-Jan-20 10:00N 45°34' W 001°03'0 0.0
2018-Jan-20 09:30N 45°34' W 001°03'0 0.0
2018-Jan-20 08:33N 45°34' W 001°03'0 0.1
2018-Jan-20 08:30N 45°34' W 001°03'0 0.1
2018-Jan-20 08:00N 45°34' W 001°03'0 0.1
2018-Jan-20 07:30N 45°34' W 001°03'0 0.0
2018-Jan-20 07:00N 45°34' W 001°03'0 0.0
2018-Jan-20 06:12N 45°34' W 001°03'0 0.1
2018-Jan-20 05:54N 45°34' W 001°03'0 1.3
2018-Jan-20 05:31N 45°34' W 001°03'4 8.4
2018-Jan-20 05:00N 45°37' W 001°06'612.3
2018-Jan-20 04:30N 45°39' W 001°15'612.0
2018-Jan-20 04:01N 45°36' W 001°22'5510.9
2018-Jan-19 22:58N 46°15' W 002°18'49 9.0
2018-Jan-19 17:28N 47°04' W 002°30'4 9.7
2018-Jan-19 17:01N 47°06' W 002°24'4 8.3
2018-Jan-19 16:31N 47°09' W 002°20'5 9.6
2018-Jan-19 16:00N 47°13' W 002°16'5 9.8
2018-Jan-19 15:31N 47°16' W 002°11'3 5.7
2018-Jan-19 14:56N 47°18' W 002°07'0 0.0
2018-Jan-19 14:26N 47°18' W 002°07'0 0.0
2018-Jan-19 13:59N 47°18' W 002°07'0 0.0
2018-Jan-19 12:20N 47°18' W 002°07'0 0.0
2018-Jan-19 11:56N 47°18' W 002°07'0 0.0
2018-Jan-19 11:29N 47°18' W 002°07'0 0.0
2018-Jan-19 10:56N 47°18' W 002°07'0 0.0
2018-Jan-19 10:20N 47°18' W 002°07'0 0.0
2018-Jan-19 09:56N 47°18' W 002°07'0 0.0
2018-Jan-19 08:56N 47°18' W 002°07'0 0.0
2018-Jan-19 07:26N 47°18' W 002°07'0 0.0
2018-Jan-19 02:50N 47°18' W 002°07'0 0.0
2018-Jan-19 02:26N 47°18' W 002°07'0 0.0
2018-Jan-19 01:50N 47°18' W 002°07'0 0.0
2018-Jan-18 22:44N 47°18' W 002°07'0 0.0
2018-Jan-18 22:26N 47°18' W 002°07'0 0.0
2018-Jan-18 21:44N 47°18' W 002°07'0 0.0
2018-Jan-18 17:26N 47°18' W 002°07'0 0.0
2018-Jan-18 16:56N 47°18' W 002°07'0 0.2
2018-Jan-18 16:30N 47°18' W 002°07'4 8.4
2018-Jan-18 16:00N 47°16' W 002°12'611.5
2018-Jan-18 15:30N 47°11' W 002°18'510.3
2018-Jan-18 15:00N 47°07' W 002°21'3 6.7
2018-Jan-18 14:30N 47°05' W 002°25'4 7.0
2018-Jan-18 14:00N 47°03' W 002°29'  

Dump ship's entire track history